Current Weather

Tokyo Intl

Tokyo, Japan (RJTT)

Report from: Tuesday, February 27, 2024 6:30 PM JST
Current time: Tuesday, February 27, 2024 6:55 PM JST

Nearby weather – Weather history – Daily summaries
Weather forecast

Temperature8.0°C (46.4°F)
Wind chill3.3°C (37.9°F)
Dew point-7.0°C (19.4°F)
Winds 22 kts (11.3 m/s, 25.3 mph) Northwest (320°)
Wind gusts 32 kts (16.5 m/s, 36.8 mph)
Visibility6.2 mi. (10 km)
Clouds Few clouds 3,000 ft. (914 m)
Ceiling: Broken clouds 14,000 ft. (4,267 m)
Altimeter30.06 in.Hg (1018 mB)
Relative humidity34 %
Density altitude-940 ft. (-286 m)
Remarks No significant changes expected in the next two hours
Flight conditions Visual Meteorological Conditions
Raw dataRJTT 270930Z 32022G32KT 9999 FEW030 BKN140 08/M07 Q1018 NOSIG
An error has occurred. This application may no longer respond until reloaded. Reload 🗙